createdAt,value
2022-12-18T00:02:27.546Z,16.23
2022-12-18T00:04:55.588Z,18.00
2022-12-18T00:07:25.009Z,16.67
2022-12-18T00:09:56.046Z,19.20
2022-12-18T00:12:24.026Z,17.15
2022-12-18T00:14:51.926Z,16.85
2022-12-18T00:17:19.881Z,17.45
2022-12-18T00:19:47.828Z,15.60
2022-12-18T00:22:15.823Z,18.83
2022-12-18T00:24:45.107Z,27.33
2022-12-18T00:29:43.824Z,29.23
2022-12-18T00:32:14.022Z,28.17
2022-12-18T00:34:41.984Z,28.73
2022-12-18T00:37:09.949Z,27.88
2022-12-18T00:39:37.918Z,27.95
2022-12-18T00:42:24.715Z,27.30
2022-12-18T00:44:52.757Z,28.73
2022-12-18T00:47:20.763Z,27.67
2022-12-18T00:49:48.690Z,26.30
2022-12-18T00:52:16.747Z,28.67
2022-12-18T00:54:44.743Z,24.67
2022-12-18T00:57:14.063Z,24.38
2022-12-18T00:59:42.298Z,28.23
2022-12-18T01:02:10.415Z,25.80
2022-12-18T01:04:38.715Z,25.48
2022-12-18T01:07:06.765Z,21.67
2022-12-18T01:09:37.243Z,25.27
2022-12-18T01:12:05.700Z,24.08
2022-12-18T01:14:35.046Z,21.15
2022-12-18T01:17:03.776Z,25.33
2022-12-18T01:19:32.229Z,24.05
2022-12-18T01:22:02.745Z,21.63
2022-12-18T01:24:30.757Z,21.00
2022-12-18T01:27:01.049Z,23.23
2022-12-18T01:29:29.075Z,20.65
2022-12-18T01:31:58.653Z,20.23
2022-12-18T01:34:29.916Z,20.48
2022-12-18T01:36:59.020Z,23.02
2022-12-18T01:39:27.716Z,23.10
2022-12-18T01:42:04.712Z,23.30
2022-12-18T01:44:58.143Z,19.58
2022-12-18T01:47:31.239Z,20.52
2022-12-18T01:50:01.529Z,19.60
2022-12-18T01:52:32.953Z,22.13
2022-12-18T01:55:01.898Z,19.20
2022-12-18T01:57:30.648Z,21.23
2022-12-18T02:00:02.960Z,19.50
2022-12-18T02:02:32.980Z,22.27
2022-12-18T02:05:05.203Z,20.35
2022-12-18T02:07:42.482Z,18.60
2022-12-18T02:10:21.925Z,20.70
2022-12-18T02:12:54.771Z,20.63
2022-12-18T02:15:33.807Z,19.25
2022-12-18T02:18:09.892Z,21.90
2022-12-18T02:20:42.482Z,18.75
2022-12-18T02:26:06.971Z,19.88
2022-12-18T02:28:38.814Z,20.83
2022-12-18T02:31:15.081Z,18.70
2022-12-18T02:33:46.203Z,19.40
2022-12-18T02:36:16.847Z,17.88
2022-12-18T02:38:46.698Z,18.27
2022-12-18T02:41:17.987Z,20.63
2022-12-18T02:43:55.913Z,19.30
2022-12-18T02:46:35.063Z,17.42
2022-12-18T02:49:14.664Z,18.85
2022-12-18T02:51:52.648Z,18.17
2022-12-18T02:54:29.972Z,17.25
2022-12-18T02:57:07.428Z,20.63
2022-12-18T02:59:43.336Z,18.48
2022-12-18T03:02:21.586Z,17.38
2022-12-18T03:04:56.509Z,14.95
2022-12-18T03:07:36.148Z,18.48
2022-12-18T03:10:04.613Z,17.52
2022-12-18T03:12:37.794Z,16.35
2022-12-18T03:15:17.616Z,17.77
2022-12-18T03:17:51.850Z,16.40
2022-12-18T03:20:23.846Z,17.17
2022-12-18T03:22:55.924Z,15.18
2022-12-18T03:25:27.719Z,16.70
2022-12-18T03:28:00.781Z,16.55
2022-12-18T03:30:31.716Z,15.80
2022-12-18T03:33:08.047Z,15.90
2022-12-18T03:35:42.615Z,16.27
2022-12-18T03:38:11.414Z,14.02
2022-12-18T03:40:50.270Z,14.98
2022-12-18T03:43:27.728Z,13.88
2022-12-18T03:46:04.350Z,14.07
2022-12-18T03:48:38.902Z,15.75
2022-12-18T03:51:12.234Z,15.93
2022-12-18T03:53:49.156Z,15.18
2022-12-18T03:56:18.850Z,16.35
2022-12-18T03:58:50.091Z,14.48
2022-12-18T04:01:20.867Z,13.52
2022-12-18T04:03:51.253Z,14.65
2022-12-18T04:06:20.525Z,16.35
2022-12-18T04:08:49.521Z,15.52
2022-12-18T04:11:17.738Z,15.55
2022-12-18T04:13:45.769Z,13.35
2022-12-18T04:16:15.118Z,13.40
2022-12-18T04:18:43.325Z,14.55
2022-12-18T04:21:12.351Z,13.00
2022-12-18T04:23:40.709Z,16.35
2022-12-18T04:26:09.028Z,14.60
2022-12-18T04:28:37.065Z,15.02
2022-12-18T04:31:05.287Z,12.65
2022-12-18T04:33:34.720Z,14.07
2022-12-18T04:36:02.722Z,12.95
2022-12-18T04:38:30.660Z,14.30
2022-12-18T04:40:58.615Z,13.38
2022-12-18T04:43:26.599Z,13.00
2022-12-18T04:45:54.694Z,12.68
2022-12-18T04:48:22.993Z,12.50
2022-12-18T04:50:52.697Z,13.10
2022-12-18T04:53:20.625Z,12.88
2022-12-18T04:55:48.629Z,12.27
2022-12-18T04:58:16.999Z,14.02
2022-12-18T05:00:45.569Z,11.38
2022-12-18T05:03:13.632Z,12.48
2022-12-18T05:05:41.664Z,13.27
2022-12-18T05:08:10.937Z,12.18
2022-12-18T05:10:38.925Z,11.60
2022-12-18T05:13:06.866Z,11.25
2022-12-18T05:15:37.199Z,12.25
2022-12-18T05:18:06.249Z,11.32
2022-12-18T05:20:34.185Z,11.82
2022-12-18T05:23:02.109Z,9.63
2022-12-18T05:25:31.426Z,12.05
2022-12-18T05:27:59.508Z,11.23
2022-12-18T05:30:28.558Z,10.15
2022-12-18T05:32:56.634Z,11.90
2022-12-18T05:35:24.678Z,11.88
2022-12-18T05:37:52.624Z,10.35
2022-12-18T05:40:20.696Z,11.05
2022-12-18T05:42:49.996Z,10.93
2022-12-18T05:45:18.068Z,10.63
2022-12-18T05:47:46.050Z,9.73
2022-12-18T05:50:14.045Z,10.10
2022-12-18T05:52:41.972Z,10.93
2022-12-18T05:55:10.175Z,9.77
2022-12-18T05:57:38.106Z,12.20
2022-12-18T06:00:08.939Z,10.75
2022-12-18T06:02:37.143Z,11.02
2022-12-18T06:05:05.585Z,9.40
2022-12-18T06:07:33.548Z,10.18
2022-12-18T06:10:01.636Z,9.60
2022-12-18T06:12:29.628Z,10.65
2022-12-18T06:14:57.567Z,10.07
2022-12-18T06:17:29.923Z,10.77
2022-12-18T06:19:57.916Z,10.05
2022-12-18T06:22:25.917Z,9.25
2022-12-18T06:24:53.979Z,10.98
2022-12-18T06:27:22.536Z,9.85
2022-12-18T06:29:50.511Z,9.75
2022-12-18T06:32:18.637Z,9.43
2022-12-18T06:34:48.145Z,9.25
2022-12-18T06:37:16.133Z,9.05
2022-12-18T06:39:44.023Z,11.15
2022-12-18T06:42:11.968Z,9.18
2022-12-18T06:44:40.035Z,10.27
2022-12-18T06:47:08.032Z,9.48
2022-12-18T06:49:36.229Z,8.68
2022-12-18T06:52:05.797Z,10.88
2022-12-18T06:54:33.755Z,9.02
2022-12-18T06:57:01.751Z,8.50
2022-12-18T06:59:29.685Z,8.73
2022-12-18T07:01:57.720Z,8.18
2022-12-18T07:04:30.201Z,8.93
2022-12-18T07:06:58.270Z,9.05
2022-12-18T07:09:30.700Z,7.78
2022-12-18T07:11:58.742Z,7.82
2022-12-18T07:14:30.113Z,10.20
2022-12-18T07:16:58.164Z,8.38
2022-12-18T07:19:26.407Z,8.82
2022-12-18T07:21:54.356Z,8.80
2022-12-18T07:24:22.397Z,9.70
2022-12-18T07:26:51.708Z,7.38
2022-12-18T07:29:19.685Z,9.98
2022-12-18T07:31:48.073Z,9.07
2022-12-18T07:34:17.172Z,9.40
2022-12-18T07:36:45.133Z,8.05
2022-12-18T07:39:13.694Z,8.52
2022-12-18T07:41:46.745Z,7.72
2022-12-18T07:44:16.327Z,6.75
2022-12-18T07:46:46.397Z,8.40
2022-12-18T07:49:14.361Z,7.68
2022-12-18T07:51:42.521Z,7.25
2022-12-18T07:54:10.545Z,7.10
2022-12-18T07:56:38.488Z,7.32
2022-12-18T07:59:06.411Z,9.43
2022-12-18T08:01:36.018Z,8.02
2022-12-18T08:04:04.065Z,7.32
2022-12-18T08:06:32.085Z,7.03
2022-12-18T08:09:00.090Z,7.65
2022-12-18T08:11:29.740Z,7.55
2022-12-18T08:13:58.026Z,6.95
2022-12-18T08:16:28.420Z,6.75
2022-12-18T08:18:57.901Z,7.05
2022-12-18T08:21:28.151Z,7.18
2022-12-18T08:23:57.682Z,8.82
2022-12-18T08:26:27.267Z,5.82
2022-12-18T08:28:56.979Z,7.25
2022-12-18T08:31:25.950Z,7.78
2022-12-18T08:33:55.329Z,7.70
2022-12-18T08:36:26.062Z,7.80
2022-12-18T08:38:55.196Z,8.23
2022-12-18T08:41:23.474Z,8.00
2022-12-18T08:44:09.310Z,7.20
2022-12-18T08:46:40.045Z,11.23
2022-12-18T08:49:09.605Z,7.25
2022-12-18T08:51:39.640Z,7.75
2022-12-18T08:54:08.509Z,7.55
2022-12-18T08:56:36.530Z,6.53
2022-12-18T08:59:07.068Z,7.15
2022-12-18T09:01:35.707Z,6.47
2022-12-18T09:04:03.980Z,6.07
2022-12-18T09:06:33.332Z,7.40
2022-12-18T09:09:02.896Z,5.10
2022-12-18T09:11:34.453Z,6.30
2022-12-18T09:14:03.554Z,5.10
2022-12-18T09:16:35.961Z,5.07
2022-12-18T09:19:06.599Z,5.23
2022-12-18T09:21:42.116Z,6.40
2022-12-18T09:24:16.164Z,7.20
2022-12-18T09:26:44.874Z,5.50
2022-12-18T09:29:16.397Z,6.05
2022-12-18T09:31:47.475Z,6.03
2022-12-18T09:34:15.479Z,6.30
2022-12-18T09:36:43.557Z,6.20
2022-12-18T09:39:11.773Z,6.78
2022-12-18T09:41:48.309Z,6.32
2022-12-18T09:44:22.119Z,4.63
2022-12-18T09:47:02.049Z,6.13
2022-12-18T09:49:34.013Z,7.45
2022-12-18T09:52:06.156Z,5.50
2022-12-18T09:54:38.477Z,5.57
2022-12-18T09:57:07.890Z,3.97
2022-12-18T09:59:41.315Z,4.93
2022-12-18T10:02:18.400Z,8.18
2022-12-18T10:04:52.481Z,5.50
2022-12-18T10:07:27.106Z,5.63
2022-12-18T10:10:05.060Z,6.90
2022-12-18T10:12:43.428Z,5.43
2022-12-18T10:15:20.113Z,5.45
2022-12-18T10:17:56.151Z,5.43
2022-12-18T10:20:31.916Z,6.25
2022-12-18T10:23:06.219Z,7.35
2022-12-18T10:25:40.852Z,6.35
2022-12-18T10:28:15.272Z,6.03
2022-12-18T10:30:45.100Z,6.53
2022-12-18T10:33:15.819Z,5.28
2022-12-18T10:35:44.607Z,6.93
2022-12-18T10:38:25.357Z,5.53
2022-12-18T10:40:56.402Z,5.32
2022-12-18T10:43:27.976Z,4.65
2022-12-18T10:46:16.949Z,6.40
2022-12-18T10:48:55.033Z,6.35
2022-12-18T10:51:27.023Z,5.57
2022-12-18T10:53:58.193Z,6.57
2022-12-18T10:56:28.120Z,6.82
2022-12-18T10:59:03.231Z,6.32
2022-12-18T11:01:48.592Z,6.45
2022-12-18T11:04:20.801Z,6.55
2022-12-18T11:07:03.931Z,5.95
2022-12-18T11:09:34.657Z,5.80
2022-12-18T11:12:05.122Z,4.28
2022-12-18T11:14:36.077Z,7.18
2022-12-18T11:19:56.420Z,5.35
2022-12-18T11:22:28.854Z,5.45
2022-12-18T11:27:54.630Z,9.13
2022-12-18T11:30:29.512Z,5.78
2022-12-18T11:33:07.415Z,5.57
2022-12-18T11:35:44.265Z,5.15
2022-12-18T11:38:24.323Z,5.53
2022-12-18T11:40:58.249Z,5.28
2022-12-18T11:43:30.963Z,5.50
2022-12-18T11:46:05.849Z,5.95
2022-12-18T11:48:39.434Z,4.38
2022-12-18T11:51:15.679Z,5.82
2022-12-18T11:53:43.691Z,6.40
2022-12-18T11:56:28.571Z,5.65
2022-12-18T11:59:10.874Z,5.88
2022-12-18T12:01:51.174Z,4.75
2022-12-18T12:04:43.077Z,5.80
2022-12-18T12:07:33.479Z,6.03
2022-12-18T12:10:12.591Z,5.47
2022-12-18T12:12:57.260Z,4.63
2022-12-18T12:15:42.278Z,6.43
2022-12-18T12:18:28.047Z,5.25
2022-12-18T12:21:05.191Z,5.22
2022-12-18T12:23:43.505Z,5.28
2022-12-18T12:26:14.257Z,4.43
2022-12-18T12:28:54.662Z,6.82
2022-12-18T12:31:36.126Z,6.32
2022-12-18T12:34:15.266Z,5.40
2022-12-18T12:36:55.127Z,4.78
2022-12-18T12:39:26.817Z,4.93
2022-12-18T12:42:08.912Z,4.82
2022-12-18T12:44:45.604Z,5.30
2022-12-18T12:47:21.681Z,5.82
2022-12-18T12:49:51.949Z,4.40
2022-12-18T12:52:29.826Z,5.05
2022-12-18T12:54:59.583Z,6.55
2022-12-18T12:57:35.232Z,8.32
2022-12-18T13:00:11.223Z,6.80
2022-12-18T13:02:49.231Z,5.22
2022-12-18T13:05:28.172Z,7.47
2022-12-18T13:08:01.402Z,5.13
2022-12-18T13:10:36.293Z,6.13
2022-12-18T13:13:07.083Z,6.35
2022-12-18T13:15:41.181Z,4.95
2022-12-18T13:20:55.379Z,5.18
2022-12-18T13:23:37.448Z,5.38
2022-12-18T13:26:35.170Z,4.65
2022-12-18T13:29:05.294Z,5.18
2022-12-18T13:32:10.202Z,4.78
2022-12-18T13:34:38.528Z,6.28
2022-12-18T13:37:52.986Z,6.40
2022-12-18T13:41:00.547Z,5.38
2022-12-18T13:43:36.658Z,5.43
2022-12-18T13:46:18.587Z,5.57
2022-12-18T13:48:54.780Z,4.72
2022-12-18T13:51:23.844Z,6.60
2022-12-18T13:53:56.258Z,7.30
2022-12-18T13:56:29.339Z,6.82
2022-12-18T13:59:17.859Z,5.60
2022-12-18T14:01:49.855Z,5.90
2022-12-18T14:04:23.369Z,5.78
2022-12-18T14:06:54.762Z,7.50
2022-12-18T14:09:32.278Z,7.90
2022-12-18T14:12:19.576Z,6.22
2022-12-18T14:14:49.731Z,7.28
2022-12-18T14:17:21.597Z,5.90
2022-12-18T14:19:52.499Z,6.00
2022-12-18T14:22:23.072Z,6.20
2022-12-18T14:25:10.782Z,7.43
2022-12-18T14:27:40.173Z,6.38
2022-12-18T14:30:26.603Z,5.22
2022-12-18T14:33:03.071Z,5.80
2022-12-18T14:35:31.109Z,5.85
2022-12-18T14:38:13.216Z,7.40
2022-12-18T14:40:42.621Z,4.97
2022-12-18T14:43:12.499Z,8.77
2022-12-18T14:45:43.681Z,6.75
2022-12-18T14:48:23.388Z,6.13
2022-12-18T14:51:03.781Z,6.50
2022-12-18T14:53:39.207Z,6.97
2022-12-18T14:56:18.150Z,5.65
2022-12-18T14:58:50.503Z,7.13
2022-12-18T15:01:25.240Z,6.00
2022-12-18T15:03:54.685Z,6.88
2022-12-18T15:06:32.666Z,7.45
2022-12-18T15:09:02.431Z,11.50
2022-12-18T15:11:36.892Z,9.95
2022-12-18T15:14:37.117Z,10.40
2022-12-18T15:17:08.508Z,9.00
2022-12-18T15:19:40.802Z,9.43
2022-12-18T15:24:48.584Z,10.65
2022-12-18T15:27:26.508Z,7.90
2022-12-18T15:30:22.774Z,11.07
2022-12-18T15:32:52.697Z,7.25
2022-12-18T15:35:23.161Z,11.07
2022-12-18T15:37:52.317Z,8.73
2022-12-18T15:40:22.878Z,7.03
2022-12-18T15:43:13.480Z,8.48
2022-12-18T15:45:41.566Z,8.05
2022-12-18T15:48:22.597Z,9.98
2022-12-18T15:50:52.020Z,6.72
2022-12-18T15:53:20.650Z,7.97
2022-12-18T15:56:08.512Z,7.35
2022-12-18T15:58:37.880Z,7.18
2022-12-18T16:01:06.178Z,7.15
2022-12-18T16:03:34.270Z,9.52
2022-12-18T16:06:04.135Z,9.10
2022-12-18T16:08:35.008Z,9.88
2022-12-18T16:11:05.529Z,8.75
2022-12-18T16:13:33.748Z,7.65
2022-12-18T16:16:03.172Z,9.43
2022-12-18T16:18:31.189Z,8.60
2022-12-18T16:21:00.282Z,10.80
2022-12-18T16:23:28.369Z,8.20
2022-12-18T16:25:56.381Z,7.78
2022-12-18T16:28:24.394Z,8.48
2022-12-18T16:30:52.431Z,10.13
2022-12-18T16:33:21.809Z,9.48
2022-12-18T16:35:54.274Z,9.95
2022-12-18T16:38:22.304Z,10.05
2022-12-18T16:41:04.160Z,10.13
2022-12-18T16:43:32.118Z,9.80
2022-12-18T16:46:01.173Z,9.40
2022-12-18T16:48:30.845Z,9.30
2022-12-18T16:51:03.507Z,8.68
2022-12-18T16:53:31.826Z,9.10
2022-12-18T16:56:01.136Z,12.18
2022-12-18T16:58:29.125Z,10.35
2022-12-18T17:00:57.077Z,7.68
2022-12-18T17:03:25.129Z,8.20
2022-12-18T17:05:54.591Z,9.77
2022-12-18T17:08:22.602Z,9.18
2022-12-18T17:10:50.556Z,9.43
2022-12-18T17:13:22.700Z,10.27
2022-12-18T17:15:53.972Z,9.98
2022-12-18T17:18:22.534Z,9.93
2022-12-18T17:20:50.506Z,8.68
2022-12-18T17:23:19.816Z,10.70
2022-12-18T17:25:47.752Z,9.20
2022-12-18T17:28:15.700Z,10.27
2022-12-18T17:30:43.721Z,10.48
2022-12-18T17:33:13.692Z,11.60
2022-12-18T17:35:42.244Z,11.00
2022-12-18T17:38:10.326Z,12.57
2022-12-18T17:40:45.896Z,9.95
2022-12-18T17:43:14.407Z,9.60
2022-12-18T17:45:42.441Z,9.25
2022-12-18T17:48:10.998Z,12.25
2022-12-18T17:50:39.433Z,9.07
2022-12-18T17:53:07.416Z,14.13
2022-12-18T17:55:35.410Z,9.40
2022-12-18T17:58:04.770Z,7.78
2022-12-18T18:00:32.702Z,11.38
2022-12-18T18:03:00.787Z,11.75
2022-12-18T18:05:28.919Z,24.05
2022-12-18T18:07:57.223Z,17.02
2022-12-18T18:10:26.298Z,21.60
2022-12-18T18:13:11.847Z,28.88
2022-12-18T18:15:45.000Z,28.60
2022-12-18T18:18:13.308Z,24.48
2022-12-18T18:20:46.127Z,25.50
2022-12-18T18:23:14.223Z,25.10
2022-12-18T18:25:42.435Z,27.58
2022-12-18T18:28:10.452Z,27.08
2022-12-18T18:30:38.785Z,25.00
2022-12-18T18:33:12.065Z,25.90
2022-12-18T18:35:58.886Z,22.52
2022-12-18T18:38:26.865Z,21.80
2022-12-18T18:40:59.673Z,24.13
2022-12-18T18:43:27.804Z,20.35
2022-12-18T18:45:57.213Z,23.20
2022-12-18T18:48:27.062Z,18.42
2022-12-18T18:50:58.457Z,22.67
2022-12-18T18:53:26.748Z,22.63
2022-12-18T18:56:24.902Z,15.75
2022-12-18T18:58:42.784Z,18.65
2022-12-18T19:01:13.858Z,19.85
2022-12-18T19:03:43.727Z,17.63
2022-12-18T19:06:15.435Z,17.70
2022-12-18T19:08:43.811Z,15.75
2022-12-18T19:11:26.639Z,17.85
2022-12-18T19:13:55.347Z,16.35
2022-12-18T19:16:25.912Z,20.15
2022-12-18T19:19:01.403Z,16.15
2022-12-18T19:21:34.062Z,16.60
2022-12-18T19:24:03.500Z,15.43
2022-12-18T19:26:31.466Z,18.67
2022-12-18T19:29:02.468Z,15.65
2022-12-18T19:31:36.127Z,16.27
2022-12-18T19:34:07.673Z,16.15
2022-12-18T19:36:37.075Z,15.95
2022-12-18T19:39:11.840Z,15.15
2022-12-18T19:41:40.103Z,12.98
2022-12-18T19:44:08.791Z,14.77
2022-12-18T19:46:39.473Z,15.55
2022-12-18T19:49:11.844Z,14.52
2022-12-18T19:51:59.758Z,16.35
2022-12-18T19:54:30.996Z,16.80
2022-12-18T19:56:59.022Z,14.40
2022-12-18T19:59:27.231Z,14.60
2022-12-18T20:01:55.311Z,13.88
2022-12-18T20:04:24.898Z,12.70
2022-12-18T20:06:56.014Z,12.88
2022-12-18T20:09:24.057Z,14.13
2022-12-18T20:11:53.160Z,13.48
2022-12-18T20:14:22.703Z,14.27
2022-12-18T20:16:51.901Z,15.35
2022-12-18T20:19:20.447Z,12.20
2022-12-18T20:21:50.063Z,13.60
2022-12-18T20:24:20.621Z,14.32
2022-12-18T20:26:48.635Z,12.98
2022-12-18T20:29:16.594Z,13.50
2022-12-18T20:31:44.605Z,12.98
2022-12-18T20:34:12.617Z,15.00
2022-12-18T20:36:41.153Z,11.63
2022-12-18T20:39:12.273Z,12.77
2022-12-18T20:41:41.361Z,13.67
2022-12-18T20:44:21.491Z,12.10
2022-12-18T20:46:53.666Z,12.25
2022-12-18T20:49:21.966Z,13.35
2022-12-18T20:51:52.239Z,13.20
2022-12-18T20:54:21.965Z,14.88
2022-12-18T20:56:50.060Z,12.55
2022-12-18T20:59:19.398Z,12.45
2022-12-18T21:01:48.350Z,11.25
2022-12-18T21:04:18.398Z,11.90
2022-12-18T21:06:51.326Z,12.75
2022-12-18T21:09:21.748Z,12.82
2022-12-18T21:12:07.379Z,11.23
2022-12-18T21:14:36.021Z,12.57
2022-12-18T21:17:04.456Z,11.85
2022-12-18T21:19:32.409Z,11.88
2022-12-18T21:22:00.833Z,12.88
2022-12-18T21:24:32.799Z,12.57
2022-12-18T21:27:01.897Z,13.07
2022-12-18T21:29:29.984Z,11.40
2022-12-18T21:31:58.378Z,11.55
2022-12-18T21:34:28.317Z,11.32
2022-12-18T21:36:58.356Z,12.38
2022-12-18T21:39:27.235Z,13.15
2022-12-18T21:42:15.162Z,10.93
2022-12-18T21:44:43.873Z,10.38
2022-12-18T21:47:22.002Z,11.73
2022-12-18T21:49:51.765Z,13.95
2022-12-18T21:52:19.837Z,12.50
2022-12-18T21:54:49.510Z,12.02
2022-12-18T21:57:19.238Z,11.65
2022-12-18T21:59:47.163Z,10.93
2022-12-18T22:02:17.569Z,15.25
2022-12-18T22:04:46.959Z,11.75
2022-12-18T22:07:16.224Z,13.07
2022-12-18T22:09:44.318Z,11.73
2022-12-18T22:12:34.371Z,11.45
2022-12-18T22:15:05.005Z,12.68
2022-12-18T22:17:33.437Z,10.48
2022-12-18T22:20:01.657Z,11.35
2022-12-18T22:22:29.607Z,12.10
2022-12-18T22:24:57.571Z,10.82
2022-12-18T22:27:25.500Z,10.95
2022-12-18T22:30:04.532Z,11.15
2022-12-18T22:32:35.067Z,11.65
2022-12-18T22:35:09.232Z,11.25
2022-12-18T22:37:40.859Z,12.50
2022-12-18T22:40:19.309Z,12.13
2022-12-18T22:42:51.629Z,13.10
2022-12-18T22:45:20.703Z,9.68
2022-12-18T22:47:50.065Z,13.00
2022-12-18T22:50:18.139Z,10.38
2022-12-18T22:52:46.112Z,11.52
2022-12-18T22:55:14.045Z,12.00
2022-12-18T22:57:47.949Z,11.88
2022-12-18T23:00:17.884Z,11.82
2022-12-18T23:02:59.717Z,12.75
2022-12-18T23:05:29.998Z,11.60
2022-12-18T23:07:58.057Z,12.05
2022-12-18T23:10:26.172Z,12.10
2022-12-18T23:12:54.219Z,11.68
2022-12-18T23:15:23.523Z,12.18
2022-12-18T23:17:58.861Z,11.60
2022-12-18T23:20:27.206Z,13.50
2022-12-18T23:22:55.265Z,12.95
2022-12-18T23:25:23.454Z,13.05
2022-12-18T23:27:54.030Z,9.75
2022-12-18T23:30:21.980Z,13.27
2022-12-18T23:32:50.031Z,12.10
2022-12-18T23:35:19.637Z,11.23
2022-12-18T23:38:04.671Z,11.05
2022-12-18T23:40:32.761Z,13.30
2022-12-18T23:43:01.136Z,13.18
2022-12-18T23:45:31.384Z,11.70
2022-12-18T23:47:59.324Z,11.25
2022-12-18T23:50:29.714Z,12.57
2022-12-18T23:53:05.162Z,11.98
2022-12-18T23:55:35.702Z,11.38
2022-12-18T23:58:03.980Z,13.02
